Time;durP1;ratioP1;P1;durP2;ratioP2;P2;SDS_P1;SDS_P2;PMS_P1;PMS_P2;Temp;Humidity;BMP_temperature;BMP_pressure;BME280_temperature;BME280_humidity;BME280_pressure;Samples;Min_cycle;Max_cycle;Signal;HPM_P1;HPM_P2
2023/01/16 00:01:49;;;;;;;2.50;1.00;;;6.00;99.90;;;;;;5051089;28;20664;-69
2023/01/16 00:04:16;;;;;;;1.93;0.70;;;6.10;99.90;;;;;;5051517;28;20223;-69
2023/01/16 00:06:43;;;;;;;2.37;0.60;;;6.00;99.90;;;;;;5051540;28;20258;-69
2023/01/16 00:09:10;;;;;;;3.57;0.80;;;5.90;99.90;;;;;;5051016;28;20227;-68
2023/01/16 00:11:38;;;;;;;3.87;0.93;;;6.00;99.90;;;;;;5051449;28;20227;-68
2023/01/16 00:14:06;;;;;;;3.60;0.93;;;6.00;99.90;;;;;;5050892;28;20238;-68
2023/01/16 00:16:33;;;;;;;1.97;0.80;;;6.10;99.90;;;;;;5050078;28;20242;-68
2023/01/16 00:19:00;;;;;;;2.63;0.90;;;6.00;99.90;;;;;;5043192;28;20720;-68
2023/01/16 00:21:28;;;;;;;3.73;0.83;;;5.90;99.90;;;;;;5051628;28;20245;-68
2023/01/16 00:23:55;;;;;;;1.90;0.87;;;6.00;99.90;;;;;;5043553;28;20275;-68
2023/01/16 00:26:23;;;;;;;3.90;0.83;;;6.10;99.90;;;;;;5050322;28;20230;-68
2023/01/16 00:28:51;;;;;;;3.87;0.77;;;6.00;99.90;;;;;;5051800;28;20245;-68
2023/01/16 00:31:18;;;;;;;4.30;0.90;;;6.10;99.90;;;;;;5051540;28;20719;-68
2023/01/16 00:33:45;;;;;;;1.30;0.70;;;6.20;99.90;;;;;;5051448;28;20293;-68
2023/01/16 00:36:13;;;;;;;2.63;1.17;;;6.10;99.90;;;;;;5051511;28;20195;-68
2023/01/16 00:38:39;;;;;;;4.27;1.33;;;6.10;99.90;;;;;;5049925;28;20672;-68
2023/01/16 00:41:07;;;;;;;3.80;1.17;;;6.00;99.90;;;;;;5051280;28;20318;-68
2023/01/16 00:43:34;;;;;;;3.40;1.10;;;6.00;99.90;;;;;;5049935;28;20230;-68
2023/01/16 00:46:02;;;;;;;3.70;2.10;;;5.90;99.90;;;;;;5050387;28;20618;-68
2023/01/16 00:48:29;;;;;;;3.63;1.00;;;5.80;99.90;;;;;;5049795;28;20253;-68
2023/01/16 00:50:56;;;;;;;1.27;0.77;;;5.80;99.90;;;;;;5050797;28;20641;-68
2023/01/16 00:53:23;;;;;;;2.40;0.70;;;5.70;99.90;;;;;;5050463;28;20234;-68
2023/01/16 00:55:51;;;;;;;4.20;0.90;;;5.70;99.90;;;;;;5050504;28;20325;-68
2023/01/16 00:58:18;;;;;;;4.03;1.43;;;5.50;99.90;;;;;;5051308;28;20293;-68
2023/01/16 01:00:45;;;;;;;3.27;0.77;;;5.50;99.90;;;;;;5050685;28;20230;-68
2023/01/16 01:03:14;;;;;;;3.60;0.80;;;5.50;99.90;;;;;;5048346;28;20230;-68
2023/01/16 01:05:41;;;;;;;3.07;0.97;;;5.60;99.90;;;;;;5047814;28;20219;-69
2023/01/16 01:08:08;;;;;;;1.00;0.70;;;5.60;99.90;;;;;;5049944;28;20257;-69
2023/01/16 01:10:37;;;;;;;1.00;0.90;;;5.60;99.90;;;;;;5049679;28;20284;-69
2023/01/16 01:13:04;;;;;;;4.67;0.87;;;5.70;99.90;;;;;;5030037;28;20227;-69
2023/01/16 01:15:32;;;;;;;1.80;1.10;;;5.70;99.90;;;;;;5049754;28;20234;-69
2023/01/16 01:17:59;;;;;;;2.07;0.80;;;5.80;99.90;;;;;;5050727;28;20245;-69
2023/01/16 01:20:27;;;;;;;3.60;0.70;;;5.90;99.90;;;;;;5050574;28;20242;-69
2023/01/16 01:22:54;;;;;;;3.23;0.90;;;5.80;99.90;;;;;;5050366;28;20245;-69
2023/01/16 01:25:21;;;;;;;3.80;0.80;;;5.80;99.90;;;;;;5050449;28;20257;-70
2023/01/16 01:27:48;;;;;;;2.57;0.70;;;5.80;99.90;;;;;;5049600;28;20645;-69
2023/01/16 01:30:16;;;;;;;2.17;0.90;;;5.70;99.90;;;;;;5050191;28;20203;-69
2023/01/16 01:32:43;;;;;;;1.07;0.70;;;5.80;99.90;;;;;;5049610;28;20187;-69
2023/01/16 01:35:10;;;;;;;4.67;1.20;;;5.80;99.90;;;;;;5050048;28;20720;-69
2023/01/16 01:37:39;;;;;;;5.57;1.27;;;5.70;99.90;;;;;;5049901;28;20282;-69
2023/01/16 01:40:07;;;;;;;4.23;1.20;;;5.50;99.90;;;;;;5049644;28;20286;-69
2023/01/16 01:42:44;;;;;;;2.60;0.90;;;5.50;99.90;;;;;;5049944;28;20672;-69
2023/01/16 01:45:17;;;;;;;3.77;0.90;;;5.40;99.90;;;;;;5050206;28;20706;-69
2023/01/16 01:47:51;;;;;;;2.83;1.07;;;5.30;99.90;;;;;;5049383;28;20205;-69
2023/01/16 01:50:26;;;;;;;1.83;0.60;;;5.30;99.90;;;;;;5049688;28;20245;-69
2023/01/16 01:52:56;;;;;;;3.70;1.03;;;5.30;99.90;;;;;;5048787;28;20229;-69
2023/01/16 01:55:23;;;;;;;3.53;1.17;;;5.40;99.90;;;;;;5049413;28;20641;-69
2023/01/16 01:57:55;;;;;;;3.53;1.00;;;5.40;99.90;;;;;;5052727;28;20245;-69
2023/01/16 02:00:25;;;;;;;0.97;0.50;;;5.40;99.90;;;;;;5053427;28;20218;-69
2023/01/16 02:02:56;;;;;;;1.27;0.73;;;5.30;99.90;;;;;;5053628;28;20325;-69
2023/01/16 02:05:29;;;;;;;2.77;0.80;;;5.30;99.90;;;;;;5052659;28;20219;-69
2023/01/16 02:07:59;;;;;;;4.67;1.00;;;5.30;99.90;;;;;;5052182;28;20620;-69
2023/01/16 02:10:33;;;;;;;3.03;0.80;;;5.30;99.90;;;;;;5054703;28;20203;-69
2023/01/16 02:13:02;;;;;;;1.70;0.77;;;5.40;99.90;;;;;;5053757;28;20230;-69
2023/01/16 02:15:29;;;;;;;4.00;0.83;;;5.30;99.90;;;;;;5053881;28;20492;-69
2023/01/16 02:20:54;;;;;;;4.73;1.00;;;5.40;99.90;;;;;;5053740;28;20603;-69
2023/01/16 02:24:20;;;;;;;1.83;0.93;;;5.40;99.90;;;;;;5053357;28;20233;-69
2023/01/16 02:27:06;;;;;;;2.77;0.80;;;5.40;99.90;;;;;;5011720;28;20266;-69
2023/01/16 02:30:09;;;;;;;1.13;0.70;;;5.50;99.90;;;;;;5011548;28;20243;-70
2023/01/16 02:32:58;;;;;;;3.57;1.00;;;5.50;99.90;;;;;;5033826;28;20672;-69
2023/01/16 02:35:44;;;;;;;5.53;0.70;;;5.50;99.90;;;;;;5053490;28;20256;-69
2023/01/16 02:38:20;;;;;;;1.43;0.90;;;5.50;99.90;;;;;;5036974;28;20620;-69
2023/01/16 02:40:58;;;;;;;1.77;0.83;;;5.50;99.90;;;;;;5053569;28;20718;-69
2023/01/16 02:43:33;;;;;;;5.17;0.90;;;5.50;99.90;;;;;;5053660;28;20218;-69
2023/01/16 02:46:09;;;;;;;3.97;1.17;;;5.40;99.90;;;;;;5051944;28;20408;-69
2023/01/16 02:48:42;;;;;;;2.87;1.13;;;5.30;99.90;;;;;;5052354;28;20199;-69
2023/01/16 02:51:16;;;;;;;2.77;0.90;;;5.20;99.90;;;;;;5053214;28;20203;-69
2023/01/16 02:53:48;;;;;;;3.03;1.27;;;5.20;99.90;;;;;;5052868;28;20309;-69
2023/01/16 02:56:20;;;;;;;2.07;0.87;;;5.10;99.90;;;;;;5053298;28;20207;-69
2023/01/16 02:58:48;;;;;;;3.00;1.10;;;5.10;99.90;;;;;;5053178;28;20199;-69
2023/01/16 03:01:18;;;;;;;2.87;1.00;;;5.10;99.90;;;;;;5053213;28;20234;-69
2023/01/16 03:03:51;;;;;;;3.33;0.90;;;5.10;99.90;;;;;;5052781;28;20228;-69
2023/01/16 03:06:43;;;;;;;3.70;1.00;;;5.20;99.90;;;;;;5052985;28;20227;-69
2023/01/16 03:09:23;;;;;;;1.00;0.80;;;5.30;99.90;;;;;;5049039;28;20207;-69
2023/01/16 03:12:01;;;;;;;3.13;1.33;;;5.30;99.90;;;;;;5052003;28;20201;-69
2023/01/16 03:14:37;;;;;;;4.37;0.80;;;5.30;99.90;;;;;;5053025;28;20613;-69
2023/01/16 03:17:18;;;;;;;2.23;1.10;;;5.30;99.90;;;;;;5052656;28;20249;-69
2023/01/16 03:19:59;;;;;;;1.87;0.87;;;5.30;99.90;;;;;;5052790;28;20556;-69
2023/01/16 03:22:35;;;;;;;1.80;0.90;;;5.20;99.90;;;;;;5053120;28;21042;-69
2023/01/16 03:25:19;;;;;;;1.83;0.93;;;5.20;99.90;;;;;;5052778;28;20924;-69
2023/01/16 03:27:54;;;;;;;2.70;1.50;;;5.30;99.90;;;;;;5052801;28;20226;-69
2023/01/16 03:30:29;;;;;;;4.33;0.70;;;5.30;99.90;;;;;;5051366;28;20203;-69
2023/01/16 03:33:02;;;;;;;1.40;0.77;;;5.30;99.90;;;;;;5036335;28;20199;-69
2023/01/16 03:35:35;;;;;;;7.63;1.93;;;5.30;99.90;;;;;;5050102;28;20238;-69
2023/01/16 03:38:06;;;;;;;5.33;1.03;;;5.30;99.90;;;;;;5050469;28;20222;-69
2023/01/16 03:40:36;;;;;;;2.53;0.80;;;5.30;99.90;;;;;;5050369;28;20210;-69
2023/01/16 03:43:09;;;;;;;1.90;0.70;;;5.30;99.90;;;;;;5050880;28;20283;-69
2023/01/16 03:45:41;;;;;;;4.37;1.17;;;5.40;99.90;;;;;;5050297;28;20231;-68
2023/01/16 03:48:12;;;;;;;1.13;1.03;;;5.30;99.90;;;;;;5058002;28;20230;-68
2023/01/16 03:50:45;;;;;;;4.00;0.80;;;5.20;99.90;;;;;;5053496;28;20234;-68
2023/01/16 03:53:17;;;;;;;2.53;1.20;;;5.20;99.90;;;;;;5065679;28;20240;-68
2023/01/16 03:55:52;;;;;;;2.50;0.70;;;5.10;99.90;;;;;;5051935;28;20729;-68
2023/01/16 03:58:25;;;;;;;4.67;0.87;;;5.10;99.90;;;;;;5049650;28;20260;-68
2023/01/16 04:01:03;;;;;;;2.53;0.70;;;5.10;99.90;;;;;;5052071;28;20206;-68
2023/01/16 04:03:38;;;;;;;1.80;0.70;;;5.00;99.90;;;;;;5048778;28;20293;-68
2023/01/16 04:06:13;;;;;;;1.33;0.80;;;5.00;99.90;;;;;;5049228;28;20261;-68
2023/01/16 04:08:42;;;;;;;3.77;0.97;;;5.00;99.90;;;;;;5049542;28;20198;-68
2023/01/16 04:11:11;;;;;;;1.53;0.70;;;5.00;99.90;;;;;;5051148;28;20203;-69
2023/01/16 04:13:41;;;;;;;1.93;0.70;;;5.10;99.90;;;;;;5049004;28;20238;-68
2023/01/16 04:16:13;;;;;;;3.03;0.77;;;5.10;99.90;;;;;;5051182;28;20320;-69
2023/01/16 04:18:42;;;;;;;1.47;0.97;;;5.20;99.90;;;;;;5049978;28;20221;-68
2023/01/16 04:21:10;;;;;;;3.40;1.20;;;5.20;99.90;;;;;;5051091;28;20245;-68
2023/01/16 04:23:38;;;;;;;2.93;1.23;;;5.20;99.90;;;;;;5051202;28;20268;-69
2023/01/16 04:26:05;;;;;;;1.97;1.00;;;5.10;99.90;;;;;;5050155;28;20318;-68
2023/01/16 04:28:32;;;;;;;3.27;1.33;;;5.20;99.90;;;;;;5051108;28;20191;-68
2023/01/16 04:30:59;;;;;;;2.73;1.03;;;5.10;99.90;;;;;;5050128;28;20603;-68
2023/01/16 04:33:26;;;;;;;1.77;1.33;;;5.20;99.90;;;;;;5051095;28;20238;-69
2023/01/16 04:35:53;;;;;;;2.57;1.13;;;5.10;99.90;;;;;;5051181;28;20230;-69
2023/01/16 04:38:21;;;;;;;4.50;0.90;;;5.00;99.90;;;;;;5050275;28;20243;-69
2023/01/16 04:40:48;;;;;;;1.83;1.00;;;5.10;99.90;;;;;;5051239;28;20386;-69
2023/01/16 04:43:15;;;;;;;3.17;0.90;;;5.00;99.90;;;;;;5050281;28;20646;-69
2023/01/16 04:45:42;;;;;;;2.50;1.10;;;4.90;99.90;;;;;;5050505;28;20869;-68
2023/01/16 04:48:10;;;;;;;1.47;1.07;;;4.80;99.90;;;;;;5050470;28;20234;-68
2023/01/16 04:50:37;;;;;;;2.77;0.77;;;4.70;99.90;;;;;;5046186;28;20625;-69
2023/01/16 04:53:04;;;;;;;2.87;1.00;;;4.90;99.90;;;;;;5050634;28;20235;-71
2023/01/16 04:55:32;;;;;;;2.60;1.03;;;4.90;99.90;;;;;;5050997;28;20238;-71
2023/01/16 04:57:59;;;;;;;2.93;0.97;;;4.90;99.90;;;;;;5050937;28;20249;-71
2023/01/16 05:00:26;;;;;;;2.17;0.80;;;4.80;99.90;;;;;;5051124;28;20199;-71
2023/01/16 05:02:53;;;;;;;2.10;0.90;;;4.90;99.90;;;;;;5049751;28;20282;-71
2023/01/16 05:05:20;;;;;;;1.70;0.80;;;4.80;99.90;;;;;;5049915;28;20262;-71
2023/01/16 05:08:15;;;;;;;3.93;1.03;;;4.80;99.90;;;;;;5049232;28;20238;-71
2023/01/16 05:10:36;;;;;;;2.73;1.20;;;4.80;99.90;;;;;;5050939;28;20202;-71
2023/01/16 05:13:03;;;;;;;1.33;0.90;;;4.80;99.90;;;;;;5050507;28;20244;-71
2023/01/16 05:15:30;;;;;;;3.07;0.70;;;4.70;99.90;;;;;;5050605;28;20672;-69
2023/01/16 05:17:58;;;;;;;0.83;0.70;;;4.60;99.90;;;;;;5048706;28;20238;-69
2023/01/16 05:20:25;;;;;;;2.93;0.77;;;4.60;99.90;;;;;;5051058;28;20203;-69
2023/01/16 05:22:52;;;;;;;2.27;0.57;;;4.60;99.90;;;;;;5049788;28;20384;-70
2023/01/16 05:25:18;;;;;;;0.77;0.63;;;4.50;99.90;;;;;;5050924;28;20524;-70
2023/01/16 05:27:51;;;;;;;0.77;0.70;;;4.60;99.90;;;;;;5050244;28;20242;-70
2023/01/16 05:30:18;;;;;;;1.63;0.80;;;4.60;99.90;;;;;;5050795;28;20199;-70
2023/01/16 05:32:45;;;;;;;2.73;0.90;;;4.60;99.90;;;;;;5053251;28;20234;-70
2023/01/16 05:35:13;;;;;;;4.57;1.00;;;4.60;99.90;;;;;;5054491;28;20207;-69
2023/01/16 05:37:40;;;;;;;3.40;1.07;;;4.70;99.90;;;;;;5054254;28;20294;-69
2023/01/16 05:40:09;;;;;;;1.73;1.00;;;4.80;99.90;;;;;;5054212;28;20294;-69
2023/01/16 05:42:35;;;;;;;3.03;0.83;;;4.90;99.90;;;;;;5053885;28;20248;-70
2023/01/16 05:45:04;;;;;;;1.53;0.90;;;4.90;99.90;;;;;;5053854;28;20238;-69
2023/01/16 05:47:31;;;;;;;4.83;1.30;;;5.00;99.90;;;;;;5054185;28;20235;-69
2023/01/16 05:49:59;;;;;;;2.57;1.00;;;5.00;99.90;;;;;;5053232;28;20678;-69
2023/01/16 05:52:26;;;;;;;1.27;0.57;;;5.00;99.90;;;;;;5054266;28;20570;-69
2023/01/16 05:54:53;;;;;;;3.30;0.53;;;5.00;99.90;;;;;;5054657;28;20207;-69
2023/01/16 05:57:20;;;;;;;0.73;0.50;;;4.90;99.90;;;;;;5053427;28;20293;-69
2023/01/16 05:59:49;;;;;;;1.43;0.60;;;4.80;99.90;;;;;;5053523;28;20214;-69
2023/01/16 06:02:17;;;;;;;2.13;0.63;;;4.80;99.90;;;;;;5053838;28;20613;-69
2023/01/16 06:04:45;;;;;;;3.80;1.60;;;4.70;99.90;;;;;;5053785;28;20203;-69
2023/01/16 06:07:12;;;;;;;0.90;0.60;;;4.70;99.90;;;;;;5053256;28;20716;-69
2023/01/16 06:09:40;;;;;;;0.43;0.40;;;4.70;99.90;;;;;;5053059;28;20235;-68
2023/01/16 06:12:08;;;;;;;1.60;0.70;;;4.60;99.90;;;;;;5052743;28;20238;-69
2023/01/16 06:14:35;;;;;;;2.90;0.80;;;4.60;99.90;;;;;;5054010;28;20210;-68
2023/01/16 06:17:02;;;;;;;1.80;0.73;;;4.60;99.90;;;;;;5052214;28;20230;-68
2023/01/16 06:19:30;;;;;;;1.20;0.50;;;4.50;99.90;;;;;;5054176;28;20261;-69
2023/01/16 06:21:57;;;;;;;0.40;0.40;;;4.40;99.90;;;;;;5053827;28;20241;-68
2023/01/16 06:24:24;;;;;;;2.90;0.50;;;4.30;99.90;;;;;;5053885;28;20681;-71
2023/01/16 06:26:51;;;;;;;1.53;0.67;;;4.40;99.90;;;;;;5053746;28;20339;-71
2023/01/16 06:29:18;;;;;;;3.30;0.70;;;4.40;99.90;;;;;;5053835;28;20846;-69
2023/01/16 06:31:45;;;;;;;0.73;0.60;;;4.30;99.90;;;;;;5053779;28;20628;-69
2023/01/16 06:34:13;;;;;;;3.23;1.37;;;4.30;99.90;;;;;;5054068;28;20234;-68
2023/01/16 06:36:42;;;;;;;3.10;1.00;;;4.30;99.90;;;;;;5053535;28;20933;-68
2023/01/16 06:39:11;;;;;;;2.17;1.00;;;4.30;99.90;;;;;;5052919;28;20684;-69
2023/01/16 06:41:38;;;;;;;5.30;1.70;;;4.30;99.90;;;;;;5053156;28;20625;-69
2023/01/16 06:44:05;;;;;;;3.27;1.10;;;4.20;99.90;;;;;;5052064;28;20286;-68
2023/01/16 06:46:32;;;;;;;1.67;1.00;;;4.20;99.90;;;;;;5053948;28;20318;-69
2023/01/16 06:48:59;;;;;;;1.67;0.87;;;4.20;99.90;;;;;;5052207;28;20238;-69
2023/01/16 06:51:26;;;;;;;1.67;1.10;;;4.20;99.90;;;;;;5053010;28;20241;-69
2023/01/16 06:53:54;;;;;;;1.47;1.13;;;4.30;99.90;;;;;;5053106;28;20290;-69
2023/01/16 06:56:21;;;;;;;1.93;1.30;;;4.30;99.90;;;;;;5053166;28;20207;-69
2023/01/16 06:58:48;;;;;;;2.50;1.10;;;4.30;99.90;;;;;;5053486;28;20290;-69
2023/01/16 07:01:15;;;;;;;4.13;1.10;;;4.20;99.90;;;;;;5053310;28;20235;-69
2023/01/16 07:03:42;;;;;;;5.07;1.40;;;4.20;99.90;;;;;;5052167;28;20238;-69
2023/01/16 07:06:09;;;;;;;2.33;1.07;;;4.30;99.90;;;;;;5053073;28;20258;-69
2023/01/16 07:08:36;;;;;;;4.07;1.30;;;4.30;99.90;;;;;;5052264;28;20234;-69
2023/01/16 07:11:05;;;;;;;3.90;1.27;;;4.40;99.90;;;;;;5052775;28;20229;-69
2023/01/16 07:13:32;;;;;;;1.93;1.07;;;4.50;99.90;;;;;;5051714;28;20614;-68
2023/01/16 07:24:22;;;;;;;3.40;1.20;;;4.70;99.90;;;;;;5051780;28;20643;-69
2023/01/16 07:26:57;;;;;;;1.60;1.17;;;4.80;99.90;;;;;;5052678;28;20318;-69
2023/01/16 07:29:24;;;;;;;3.60;1.10;;;4.70;99.90;;;;;;5051433;28;20216;-68
2023/01/16 07:31:52;;;;;;;1.97;1.27;;;4.60;99.90;;;;;;5051255;28;20669;-68
2023/01/16 07:34:18;;;;;;;1.53;1.30;;;4.60;99.90;;;;;;5052288;28;20653;-68
2023/01/16 07:36:45;;;;;;;1.17;0.90;;;4.70;99.90;;;;;;5051239;28;20241;-69
2023/01/16 07:39:12;;;;;;;2.50;1.10;;;4.70;99.90;;;;;;5051476;28;20242;-69
2023/01/16 07:41:39;;;;;;;3.33;1.30;;;4.60;99.90;;;;;;5050900;28;20244;-69
2023/01/16 07:44:08;;;;;;;2.30;1.17;;;4.40;99.90;;;;;;5052260;28;20731;-69
2023/01/16 07:46:35;;;;;;;2.80;1.27;;;4.70;99.90;;;;;;5052381;28;20258;-68
2023/01/16 07:49:02;;;;;;;1.50;0.97;;;4.50;99.90;;;;;;5051779;28;20203;-68
2023/01/16 07:51:29;;;;;;;5.10;1.43;;;4.50;99.90;;;;;;5052288;28;20656;-69
2023/01/16 07:53:56;;;;;;;3.23;1.30;;;4.50;99.90;;;;;;5051158;28;20295;-68
2023/01/16 07:56:22;;;;;;;1.83;1.10;;;4.50;99.90;;;;;;5050890;28;20238;-69
2023/01/16 07:58:52;;;;;;;7.03;1.97;;;4.40;99.90;;;;;;5051652;28;20294;-69
2023/01/16 08:01:21;;;;;;;1.83;1.07;;;4.50;99.90;;;;;;5052014;28;20242;-69
2023/01/16 08:03:48;;;;;;;3.33;0.97;;;4.60;99.90;;;;;;5051878;28;20286;-69
2023/01/16 08:06:15;;;;;;;2.67;1.10;;;4.60;99.90;;;;;;5051676;28;20280;-69
2023/01/16 08:08:42;;;;;;;2.50;0.80;;;4.80;99.90;;;;;;5051538;28;20701;-68
2023/01/16 08:13:49;;;;;;;1.30;0.97;;;5.00;99.90;;;;;;5043284;28;20248;-69
2023/01/16 08:16:16;;;;;;;3.53;1.00;;;5.00;99.90;;;;;;5051772;28;20203;-69
2023/01/16 08:18:48;;;;;;;2.83;0.87;;;5.10;99.90;;;;;;5051428;28;20293;-69
2023/01/16 08:21:16;;;;;;;1.37;0.93;;;5.10;99.90;;;;;;5051948;28;20226;-68
2023/01/16 08:23:43;;;;;;;3.93;1.20;;;5.20;99.90;;;;;;5050151;28;20202;-68
2023/01/16 08:26:10;;;;;;;1.83;1.00;;;5.20;99.90;;;;;;5051021;28;20234;-69
2023/01/16 08:28:37;;;;;;;0.90;0.70;;;5.30;99.90;;;;;;5051752;28;20203;-69
2023/01/16 08:31:07;;;;;;;2.60;1.20;;;5.40;99.90;;;;;;5051651;28;20639;-69
2023/01/16 08:33:35;;;;;;;2.33;1.57;;;5.60;99.90;;;;;;5051474;28;20210;-69
2023/01/16 08:36:03;;;;;;;2.60;1.17;;;5.60;99.90;;;;;;5051099;28;20207;-69
2023/01/16 08:38:30;;;;;;;1.60;1.10;;;5.70;99.90;;;;;;5049748;28;20203;-68
2023/01/16 08:40:57;;;;;;;2.73;1.23;;;5.60;99.90;;;;;;5051415;28;20297;-69
2023/01/16 08:51:59;;;;;;;2.37;1.07;;;6.00;99.90;;;;;;5044059;28;20256;-68
2023/01/16 08:54:26;;;;;;;2.70;0.80;;;6.10;99.90;;;;;;5050203;28;20237;-68
2023/01/16 08:56:53;;;;;;;1.13;0.80;;;5.90;99.90;;;;;;5051106;28;20239;-69
2023/01/16 08:59:20;;;;;;;4.10;1.20;;;6.10;99.90;;;;;;5050108;28;20286;-69
2023/01/16 09:01:47;;;;;;;1.23;1.07;;;6.10;99.90;;;;;;5050482;28;20224;-69
2023/01/16 09:04:14;;;;;;;4.60;1.10;;;6.20;99.90;;;;;;5051178;28;20230;-69
2023/01/16 09:06:41;;;;;;;2.10;1.20;;;6.30;99.90;;;;;;5052728;28;20273;-68
2023/01/16 09:09:09;;;;;;;3.00;1.10;;;6.30;99.90;;;;;;5053641;28;20257;-69
2023/01/16 09:14:21;;;;;;;1.23;0.80;;;7.00;99.90;;;;;;5055128;28;20296;-69
2023/01/16 09:16:49;;;;;;;2.87;0.80;;;6.90;99.90;;;;;;5047074;28;20664;-69
2023/01/16 09:19:16;;;;;;;3.03;0.97;;;6.50;99.90;;;;;;5053950;28;20306;-69
2023/01/16 09:21:43;;;;;;;3.27;1.17;;;6.40;99.90;;;;;;5053940;28;20286;-69
2023/01/16 09:24:12;;;;;;;3.33;1.10;;;6.30;99.90;;;;;;5055019;28;20704;-69
2023/01/16 09:26:39;;;;;;;2.20;0.83;;;6.20;99.90;;;;;;5054945;28;20269;-69
2023/01/16 09:29:06;;;;;;;2.00;1.00;;;6.10;99.90;;;;;;5054873;28;20676;-68
2023/01/16 09:31:33;;;;;;;4.83;1.23;;;6.10;99.90;;;;;;5054537;28;20543;-69
2023/01/16 09:34:00;;;;;;;2.50;0.90;;;6.20;99.90;;;;;;5054641;28;20238;-69
2023/01/16 09:36:27;;;;;;;4.00;1.30;;;6.30;99.90;;;;;;5054230;28;20239;-68
2023/01/16 09:38:54;;;;;;;0.60;0.60;;;6.20;99.90;;;;;;5054646;28;20260;-69
2023/01/16 09:44:13;;;;;;;3.07;1.10;;;6.20;99.90;;;;;;5054640;28;20257;-69
2023/01/16 09:46:43;;;;;;;2.23;0.90;;;6.30;99.90;;;;;;5052884;28;20237;-69
2023/01/16 09:49:19;;;;;;;1.77;1.33;;;6.20;99.90;;;;;;5054553;28;20215;-69
2023/01/16 10:00:16;;;;;;;2.10;0.77;;;6.30;99.90;;;;;;5054502;28;20726;-68
2023/01/16 10:02:43;;;;;;;1.40;0.90;;;6.30;99.90;;;;;;5054137;28;20281;-68
2023/01/16 10:05:13;;;;;;;1.20;0.90;;;6.40;99.90;;;;;;5054383;28;20294;-68
2023/01/16 10:07:51;;;;;;;1.53;1.10;;;6.40;99.90;;;;;;5053985;28;20223;-68
2023/01/16 10:10:41;;;;;;;2.67;0.93;;;6.40;99.90;;;;;;5052916;28;20618;-68
2023/01/16 10:13:41;;;;;;;4.03;1.10;;;6.40;99.90;;;;;;5053147;28;20614;-69
2023/01/16 10:16:16;;;;;;;1.33;0.80;;;6.40;99.90;;;;;;5054021;28;20309;-68
2023/01/16 10:18:53;;;;;;;4.63;1.47;;;6.40;99.90;;;;;;5051527;28;20242;-68
2023/01/16 10:21:38;;;;;;;3.47;1.20;;;6.50;99.90;;;;;;5052678;28;21008;-68
2023/01/16 10:24:17;;;;;;;3.70;0.80;;;6.60;99.90;;;;;;5052522;28;20238;-68
2023/01/16 10:26:57;;;;;;;0.77;0.70;;;6.60;99.90;;;;;;5051659;28;20649;-69
2023/01/16 10:29:31;;;;;;;1.87;0.80;;;6.60;99.90;;;;;;5051512;28;20202;-69
2023/01/16 10:32:02;;;;;;;2.40;0.57;;;6.60;99.90;;;;;;5054073;28;20206;-70
2023/01/16 10:34:32;;;;;;;3.30;0.90;;;6.60;99.90;;;;;;5054023;28;20214;-68
2023/01/16 10:37:01;;;;;;;3.50;0.83;;;6.50;99.90;;;;;;5054035;28;20191;-69
2023/01/16 10:39:33;;;;;;;3.83;2.80;;;6.60;99.90;;;;;;5053751;28;20222;-69
2023/01/16 10:50:30;;;;;;;4.43;0.97;;;6.50;99.90;;;;;;5053732;28;20268;-68
2023/01/16 10:52:57;;;;;;;1.13;0.80;;;6.50;99.90;;;;;;5053446;28;20500;-69
2023/01/16 10:55:24;;;;;;;3.53;0.80;;;6.40;99.90;;;;;;5053870;28;20215;-69
2023/01/16 10:57:53;;;;;;;3.90;0.80;;;6.40;99.90;;;;;;5054317;28;20191;-69
2023/01/16 11:00:28;;;;;;;2.50;0.90;;;6.40;99.90;;;;;;5054350;28;20672;-69
2023/01/16 11:02:58;;;;;;;1.77;0.70;;;6.40;99.90;;;;;;5054222;28;20211;-69
2023/01/16 11:05:30;;;;;;;2.13;0.90;;;6.50;99.90;;;;;;5054211;28;20203;-68
2023/01/16 11:08:06;;;;;;;2.73;0.60;;;6.50;99.90;;;;;;5053870;28;20226;-69
2023/01/16 11:10:32;;;;;;;2.07;0.80;;;6.50;99.90;;;;;;5052702;28;20672;-69
2023/01/16 11:18:48;;;;;;;2.10;1.10;;;6.50;99.90;;;;;;5053283;28;20293;-69
2023/01/16 11:21:18;;;;;;;1.50;0.77;;;6.60;99.90;;;;;;5054161;28;20209;-69
2023/01/16 11:23:49;;;;;;;1.53;0.90;;;6.60;99.90;;;;;;5053521;28;20285;-68
2023/01/16 11:26:17;;;;;;;2.90;1.10;;;6.60;99.90;;;;;;5052986;28;20249;-68
2023/01/16 11:28:48;;;;;;;3.00;0.80;;;6.70;99.90;;;;;;5051988;28;20272;-69
2023/01/16 11:31:21;;;;;;;1.80;0.77;;;6.70;99.90;;;;;;5053526;28;20206;-69
2023/01/16 11:33:54;;;;;;;1.47;0.70;;;6.80;99.90;;;;;;5052776;28;20207;-69
2023/01/16 11:36:22;;;;;;;3.80;0.83;;;6.70;99.90;;;;;;5053546;28;20273;-68
2023/01/16 11:38:49;;;;;;;3.37;0.73;;;6.70;99.90;;;;;;5052303;28;20203;-69
2023/01/16 11:41:19;;;;;;;1.70;0.70;;;6.80;99.90;;;;;;5053408;28;20207;-69
2023/01/16 11:46:51;;;;;;;1.63;0.73;;;6.70;99.90;;;;;;5053321;28;20287;-69
2023/01/16 11:49:19;;;;;;;3.23;0.70;;;6.80;99.90;;;;;;5052612;28;20225;-69
2023/01/16 11:51:52;;;;;;;1.10;0.67;;;6.90;99.90;;;;;;5051951;28;20257;-68
2023/01/16 11:54:24;;;;;;;1.57;0.77;;;6.90;99.90;;;;;;5052739;28;20607;-68
2023/01/16 11:56:59;;;;;;;2.30;0.70;;;6.90;99.90;;;;;;5053166;28;20214;-69
2023/01/16 11:59:45;;;;;;;1.17;0.77;;;6.90;99.90;;;;;;5052940;28;20217;-68
2023/01/16 12:02:28;;;;;;;2.60;0.80;;;6.90;99.90;;;;;;5051890;28;20210;-69
2023/01/16 12:08:04;;;;;;;5.93;1.73;;;7.00;99.90;;;;;;5052809;28;20315;-69
2023/01/16 12:10:42;;;;;;;1.77;1.10;;;7.10;99.90;;;;;;5052578;28;20249;-69
2023/01/16 12:16:16;;;;;;;1.47;0.97;;;7.10;99.90;;;;;;5045261;28;20214;-68
2023/01/16 12:18:58;;;;;;;4.07;0.87;;;7.20;99.90;;;;;;5051466;28;20199;-69
2023/01/16 12:21:34;;;;;;;3.17;0.70;;;7.20;99.90;;;;;;5052722;28;20218;-69
2023/01/16 12:24:15;;;;;;;4.03;0.90;;;7.00;99.90;;;;;;5052412;28;20198;-69
2023/01/16 12:26:51;;;;;;;2.53;0.80;;;7.10;99.90;;;;;;5052479;28;20213;-69
2023/01/16 12:29:29;;;;;;;0.90;0.70;;;6.90;99.90;;;;;;5052347;28;20226;-69
2023/01/16 12:32:13;;;;;;;1.77;0.90;;;7.00;99.90;;;;;;5052315;28;20207;-68
2023/01/16 12:35:04;;;;;;;2.97;0.93;;;7.00;99.90;;;;;;5052392;28;20207;-69
2023/01/16 12:37:44;;;;;;;4.07;0.83;;;7.10;99.90;;;;;;5051919;28;20568;-69
2023/01/16 12:40:28;;;;;;;1.00;0.80;;;7.20;99.90;;;;;;5052578;28;20214;-69
2023/01/16 12:43:22;;;;;;;2.77;1.00;;;7.50;99.90;;;;;;5052431;28;20675;-69
2023/01/16 12:45:52;;;;;;;1.37;1.00;;;7.50;99.90;;;;;;5050743;28;20199;-69
2023/01/16 12:48:50;;;;;;;0.93;0.50;;;7.50;99.90;;;;;;5051906;28;20254;-69
2023/01/16 12:51:38;;;;;;;2.30;1.00;;;7.60;99.90;;;;;;5049185;28;20238;-68
2023/01/16 12:54:21;;;;;;;0.90;0.70;;;8.00;99.90;;;;;;5045932;28;20559;-69
2023/01/16 12:57:03;;;;;;;3.83;0.80;;;8.30;99.90;;;;;;5052047;28;20191;-69
2023/01/16 12:59:34;;;;;;;3.73;0.93;;;8.10;99.90;;;;;;5050908;28;20198;-69
2023/01/16 13:02:14;;;;;;;2.23;1.10;;;7.70;99.90;;;;;;5051587;28;20199;-69
2023/01/16 13:04:47;;;;;;;4.93;1.20;;;7.60;99.90;;;;;;5051701;28;20206;-69
2023/01/16 13:07:17;;;;;;;1.67;0.80;;;7.70;99.90;;;;;;5052118;28;20219;-69
2023/01/16 13:09:49;;;;;;;2.00;0.77;;;7.50;99.90;;;;;;5051190;28;20213;-69
2023/01/16 13:15:09;;;;;;;0.80;0.63;;;8.10;99.90;;;;;;5051509;28;20326;-68
2023/01/16 13:17:43;;;;;;;2.20;0.87;;;8.10;99.90;;;;;;5050932;28;20649;-69
2023/01/16 13:20:13;;;;;;;1.33;0.50;;;7.90;99.90;;;;;;5051833;28;20218;-69
2023/01/16 13:22:46;;;;;;;2.00;0.80;;;8.00;99.90;;;;;;5051661;28;20230;-69
2023/01/16 13:25:20;;;;;;;2.33;0.77;;;8.20;99.90;;;;;;5050893;28;20195;-69
2023/01/16 13:27:54;;;;;;;3.23;0.87;;;7.90;99.90;;;;;;5049023;28;20214;-69
2023/01/16 13:30:21;;;;;;;1.50;0.70;;;7.50;99.90;;;;;;5050820;28;20630;-69
2023/01/16 13:32:54;;;;;;;2.03;1.10;;;7.60;99.90;;;;;;5051053;28;20203;-69
2023/01/16 13:35:25;;;;;;;3.73;0.80;;;7.60;99.90;;;;;;5051739;28;20217;-69
2023/01/16 13:38:31;;;;;;;3.03;0.80;;;7.50;99.90;;;;;;5051282;28;20210;-69
2023/01/16 13:41:17;;;;;;;4.20;1.10;;;7.40;99.90;;;;;;5044841;28;20202;-69
2023/01/16 13:46:36;;;;;;;2.27;0.87;;;7.20;99.90;;;;;;5051717;28;20225;-68
2023/01/16 13:49:05;;;;;;;2.47;0.70;;;7.20;99.90;;;;;;5050167;28;20227;-69
2023/01/16 13:51:40;;;;;;;2.47;0.63;;;7.10;99.90;;;;;;5050976;28;20199;-69
2023/01/16 13:54:15;;;;;;;2.00;0.80;;;7.10;99.90;;;;;;5054775;28;20207;-69
2023/01/16 13:56:42;;;;;;;4.80;1.63;;;7.20;99.90;;;;;;5054978;28;20218;-69
2023/01/16 13:59:33;;;;;;;2.13;0.83;;;7.10;99.90;;;;;;5054757;28;20551;-69
2023/01/16 14:02:00;;;;;;;2.90;0.80;;;7.10;99.90;;;;;;5054909;28;20612;-69
2023/01/16 14:04:30;;;;;;;2.20;0.80;;;7.10;99.90;;;;;;5054999;28;20203;-69
2023/01/16 14:10:16;;;;;;;1.30;0.80;;;6.90;99.90;;;;;;5054791;28;20575;-71
2023/01/16 14:12:59;;;;;;;0.67;0.67;;;6.80;99.90;;;;;;5050350;28;20636;-71
2023/01/16 14:18:17;;;;;;;1.90;0.80;;;6.70;99.90;;;;;;5049963;28;20475;-71
2023/01/16 14:20:50;;;;;;;1.30;0.73;;;6.60;99.90;;;;;;5054701;28;20226;-72
2023/01/16 14:26:09;;;;;;;0.70;0.70;;;6.50;99.90;;;;;;5053385;28;20202;-71
2023/01/16 14:28:38;;;;;;;1.07;0.50;;;6.30;99.90;;;;;;5053282;28;20226;-72
2023/01/16 14:31:05;;;;;;;2.97;0.80;;;6.30;99.90;;;;;;5053976;28;20210;-71
2023/01/16 14:33:33;;;;;;;2.03;0.87;;;6.40;99.90;;;;;;5052391;28;20199;-71